地図

経路データ

SID SEASON NUMBER BASIN SUBBASIN NAME ISO_TIME NATURE LAT LON WMO_WIND WMO_PRES WMO_AGENCY TRACK_TYPE DIST2LAND LANDFALL IFLAG USA_AGENCY USA_ATCF_ID USA_LAT USA_LON USA_RECORD USA_STATUS USA_WIND USA_PRES USA_SSHS USA_R34_NE USA_R34_SE USA_R34_SW USA_R34_NW USA_R50_NE USA_R50_SE USA_R50_SW USA_R50_NW USA_R64_NE USA_R64_SE USA_R64_SW USA_R64_NW USA_POCI USA_ROCI USA_RMW USA_EYE TOKYO_LAT TOKYO_LON TOKYO_GRADE TOKYO_WIND TOKYO_PRES TOKYO_R50_DIR TOKYO_R50_LONG TOKYO_R50_SHORT TOKYO_R30_DIR TOKYO_R30_LONG TOKYO_R30_SHORT TOKYO_LAND CMA_LAT CMA_LON CMA_CAT CMA_WIND CMA_PRES HKO_LAT HKO_LON HKO_CAT HKO_WIND HKO_PRES NEWDELHI_LAT NEWDELHI_LON NEWDELHI_GRADE NEWDELHI_WIND NEWDELHI_PRES NEWDELHI_CI NEWDELHI_DP NEWDELHI_POCI REUNION_LAT REUNION_LON REUNION_TYPE REUNION_WIND REUNION_PRES REUNION_TNUM REUNION_CI REUNION_RMW REUNION_R34_NE REUNION_R34_SE REUNION_R34_SW REUNION_R34_NW REUNION_R50_NE REUNION_R50_SE REUNION_R50_SW REUNION_R50_NW REUNION_R64_NE REUNION_R64_SE REUNION_R64_SW REUNION_R64_NW BOM_LAT BOM_LON BOM_TYPE BOM_WIND BOM_PRES BOM_TNUM BOM_CI BOM_RMW BOM_R34_NE BOM_R34_SE BOM_R34_SW BOM_R34_NW BOM_R50_NE BOM_R50_SE BOM_R50_SW BOM_R50_NW BOM_R64_NE BOM_R64_SE BOM_R64_SW BOM_R64_NW BOM_ROCI BOM_POCI BOM_EYE BOM_POS_METHOD BOM_PRES_METHOD NADI_LAT NADI_LON NADI_CAT NADI_WIND NADI_PRES WELLINGTON_LAT WELLINGTON_LON WELLINGTON_WIND WELLINGTON_PRES DS824_LAT DS824_LON DS824_STAGE DS824_WIND DS824_PRES TD9636_LAT TD9636_LON TD9636_STAGE TD9636_WIND TD9636_PRES TD9635_LAT TD9635_LON TD9635_WIND TD9635_PRES TD9635_ROCI NEUMANN_LAT NEUMANN_LON NEUMANN_CLASS NEUMANN_WIND NEUMANN_PRES MLC_LAT MLC_LON MLC_CLASS MLC_WIND MLC_PRES USA_GUST BOM_GUST BOM_GUST_PER REUNION_GUST REUNION_GUST_PER USA_SEAHGT USA_SEARAD_NE USA_SEARAD_SE USA_SEARAD_SW USA_SEARAD_NW STORM_SPEED STORM_DIR
1974238N12255 1974 91 EP MM MAGGIE 1974-08-26 00:00:00 TS 11.5000 -105.000 35 hurdat_epa main 772 754 O________OO___ hurdat_epa EP131974 11.5000 -105.000 TS 35 0 11.5000 -105.000 TC 35 11.5000 -105.000 2 35 6 321
1974238N12255 1974 91 EP MM MAGGIE 1974-08-26 03:00:00 TS 11.7412 -105.203 main 757 733 P________PP___ EP131974 11.7475 -105.210 TS 37 0 11.7475 -105.210 TC 37 11.7157 -105.175 2 36 6 322
1974238N12255 1974 91 EP MM MAGGIE 1974-08-26 06:00:00 TS 11.9910 -105.390 40 hurdat_epa main 733 715 O________OP___ hurdat_epa EP131974 12.0000 -105.400 TS 40 0 12.0000 -105.400 TC 40 11.9551 -105.350 2 37 6 327
1974238N12255 1974 91 EP MM MAGGIE 1974-08-26 09:00:00 TS 12.2644 -105.551 main 708 680 P________PP___ EP131974 12.2700 -105.558 TS 40 0 12.2700 -105.558 TC 40 12.2420 -105.525 2 38 7 333
1974238N12255 1974 91 EP MM MAGGIE 1974-08-26 12:00:00 TS 12.6000 -105.700 40 hurdat_epa main 680 642 O________OO___ hurdat_epa EP131974 12.6000 -105.700 TS 40 0 12.6000 -105.700 TC 40 12.6000 -105.700 2 40 8 339
1974238N12255 1974 91 EP MM MAGGIE 1974-08-26 15:00:00 TS 13.0300 -105.849 main 642 600 P________PP___ EP131974 13.0275 -105.843 TS 52 0 13.0275 -105.843 TC 52 13.0403 -105.875 2 46 10 342
1974238N12255 1974 91 EP MM MAGGIE 1974-08-26 18:00:00 TS 13.5045 -106.010 65 hurdat_epa main 600 561 O________OP___ hurdat_epa EP131974 13.5000 -106.000 HU 65 1 13.5000 -106.000 TC 65 13.5225 -106.050 2 52 10 340
1974238N12255 1974 91 EP MM MAGGIE 1974-08-26 21:00:00 TS 13.9887 -106.205 main 561 535 P________PP___ EP131974 13.9875 -106.200 HU 65 1 13.9875 -106.200 TC 65 13.9934 -106.225 2 58 10 337
1974238N12255 1974 91 EP MM MAGGIE 1974-08-27 00:00:00 TS 14.4000 -106.400 65 hurdat_epa main 535 523 O________OO___ hurdat_epa EP131974 14.4000 -106.400 HU 65 1 14.4000 -106.400 TC 65 14.4000 -106.400 4 65 7 333
1974238N12255 1974 91 EP MM MAGGIE 1974-08-27 03:00:00 TS 14.6410 -106.550 main 529 512 P________PP___ EP131974 14.6375 -106.550 HU 67 1 14.6375 -106.550 TC 67 14.6554 -106.551 4 68 5 325
1974238N12255 1974 91 EP MM MAGGIE 1974-08-27 06:00:00 TS 14.8089 -106.701 70 hurdat_epa main 519 509 O________OP___ hurdat_epa EP131974 14.8000 -106.700 HU 70 1 14.8000 -106.700 TC 70 14.8446 -106.706 4 72 5 318
1974238N12255 1974 91 EP MM MAGGIE 1974-08-27 09:00:00 TS 14.9903 -106.879 main 517 509 P________PP___ EP131974 14.9850 -106.878 HU 75 1 14.9850 -106.878 TC 75 15.0116 -106.883 4 76 6 315
1974238N12255 1974 91 EP MM MAGGIE 1974-08-27 12:00:00 TS 15.2000 -107.100 80 hurdat_epa main 509 491 O________OO___ hurdat_epa EP131974 15.2000 -107.100 HU 80 1 15.2000 -107.100 TC 80 15.2000 -107.100 4 80 7 316
1974238N12255 1974 91 EP MM MAGGIE 1974-08-27 15:00:00 TS 15.4855 -107.379 main 497 488 P________PP___ EP131974 15.4850 -107.378 HU 95 2 15.4850 -107.378 TC 95 15.4877 -107.386 4 87 8 316
1974238N12255 1974 91 EP MM MAGGIE 1974-08-27 18:00:00 TS 15.8000 -107.702 110 934 hurdat_epa main 489 485 O________OP___ hurdat_epa EP131974 15.8000 -107.700 HU 110 934 3 15.8000 -107.700 TC 110 934 15.8002 -107.712 4 95 9 314
1974238N12255 1974 91 EP MM MAGGIE 1974-08-27 21:00:00 TS 16.1145 -108.051 main 492 484 P________PP___ EP131974 16.1150 -108.050 HU 110 3 16.1150 -108.050 TC 110 16.1126 -108.057 4 102 9 312
1974238N12255 1974 91 EP MM MAGGIE 1974-08-28 00:00:00 TS 16.4000 -108.400 110 hurdat_epa main 492 491 O________OO___ hurdat_epa EP131974 16.4000 -108.400 HU 110 3 16.4000 -108.400 TC 110 16.4000 -108.400 4 110 8 309
1974238N12255 1974 91 EP MM MAGGIE 1974-08-28 03:00:00 TS 16.6152 -108.704 main 499 499 P________PP___ EP131974 16.6149 -108.708 HU 115 4 16.6149 -108.708 TC 115 16.6161 -108.688 4 112 7 305
1974238N12255 1974 91 EP MM MAGGIE 1974-08-28 06:00:00 TS 16.8014 -108.994 120 hurdat_epa main 507 507 O________OP___ hurdat_epa EP131974 16.8000 -109.000 HU 120 4 16.8000 -109.000 TC 120 16.8069 -108.971 4 115 7 304
1974238N12255 1974 91 EP MM MAGGIE 1974-08-28 09:00:00 TS 16.9867 -109.282 main 519 519 P________PP___ EP131974 16.9849 -109.285 HU 120 4 16.9849 -109.285 TC 120 16.9942 -109.269 4 117 7 305
1974238N12255 1974 91 EP MM MAGGIE 1974-08-28 12:00:00 TS 17.2000 -109.600 120 hurdat_epa main 532 532 O________OO___ hurdat_epa EP131974 17.2000 -109.600 HU 120 4 17.2000 -109.600 TC 120 17.2000 -109.600 4 120 8 307
1974238N12255 1974 91 EP MM MAGGIE 1974-08-28 15:00:00 TS 17.4904 -109.983 main 550 550 P________PP___ EP131974 17.4925 -109.977 HU 120 4 17.4925 -109.977 TC 120 17.4822 -110.005 4 118 10 308
1974238N12255 1974 91 EP MM MAGGIE 1974-08-28 18:00:00 TS 17.7961 -110.408 120 hurdat_epa main 571 543 O________OP___ hurdat_epa EP131974 17.8000 -110.400 HU 120 4 17.8000 -110.400 TC 120 17.7804 -110.442 4 117 10 305
1974238N12255 1974 91 EP MM MAGGIE 1974-08-28 21:00:00 TS 18.0707 -110.863 main 544 529 P________PP___ EP131974 18.0725 -110.857 HU 120 4 18.0725 -110.857 TC 120 18.0634 -110.883 4 116 10 301
1974238N12255 1974 91 EP MM MAGGIE 1974-08-29 00:00:00 TS 18.3000 -111.300 120 hurdat_epa main 531 519 O________OO___ hurdat_epa EP131974 18.3000 -111.300 HU 120 4 18.3000 -111.300 TC 120 18.3000 -111.300 4 115 9 298
1974238N12255 1974 91 EP MM MAGGIE 1974-08-29 03:00:00 TS 18.4763 -111.668 main 522 519 P________PP___ EP131974 18.4799 -111.673 HU 115 4 18.4799 -111.673 TC 115 18.4620 -111.650 4 113 7 294
1974238N12255 1974 91 EP MM MAGGIE 1974-08-29 06:00:00 TS 18.5949 -111.995 110 hurdat_epa main 523 522 O________OP___ hurdat_epa EP131974 18.6000 -112.000 HU 110 3 18.6000 -112.000 TC 110 18.5743 -111.973 4 112 6 287
1974238N12255 1974 91 EP MM MAGGIE 1974-08-29 09:00:00 TS 18.6618 -112.297 main 526 526 P________PP___ EP131974 18.6649 -112.300 HU 110 3 18.6649 -112.300 TC 110 18.6495 -112.284 4 111 6 280
1974238N12255 1974 91 EP MM MAGGIE 1974-08-29 12:00:00 TS 18.7000 -112.600 110 hurdat_epa main 541 541 O________OO___ hurdat_epa EP131974 18.7000 -112.600 HU 110 3 18.7000 -112.600 TC 110 18.7000 -112.600 4 110 6 279
1974238N12255 1974 91 EP MM MAGGIE 1974-08-29 15:00:00 TS 18.7561 -112.946 main 548 548 P________PP___ EP131974 18.7575 -112.942 HU 92 2 18.7575 -112.942 TC 92 18.7507 -112.959 4 102 7 278
1974238N12255 1974 91 EP MM MAGGIE 1974-08-29 18:00:00 TS 18.7960 -113.305 75 hurdat_epa main 572 572 O________OP___ hurdat_epa EP131974 18.8000 -113.300 HU 75 1 18.8000 -113.300 TC 75 18.7801 -113.323 4 95 7 274
1974238N12255 1974 91 EP MM MAGGIE 1974-08-29 21:00:00 TS 18.8049 -113.667 main 598 598 P________PP___ EP131974 18.8075 -113.665 HU 70 1 18.8075 -113.665 TC 70 18.7945 -113.675 4 87 7 270
1974238N12255 1974 91 EP MM MAGGIE 1974-08-30 00:00:00 TS 18.8000 -114.000 65 hurdat_epa main 618 618 O________OO___ hurdat_epa EP131974 18.8000 -114.000 HU 65 1 18.8000 -114.000 TC 65 18.8000 -114.000 4 80 6 269
1974238N12255 1974 91 EP MM MAGGIE 1974-08-30 03:00:00 TS 18.7997 -114.270 main 640 640 P________PP___ EP131974 18.7999 -114.265 HU 65 1 18.7999 -114.265 TC 65 18.7988 -114.291 4 77 5 270
1974238N12255 1974 91 EP MM MAGGIE 1974-08-30 06:00:00 TS 18.7985 -114.511 65 hurdat_epa main 654 654 O________OP___ hurdat_epa EP131974 18.8000 -114.500 HU 65 1 18.8000 -114.500 TC 65 18.7922 -114.553 4 75 5 269
1974238N12255 1974 91 EP MM MAGGIE 1974-08-30 09:00:00 TS 18.7919 -114.764 main 677 677 P________PP___ EP131974 18.7925 -114.758 HU 65 1 18.7925 -114.758 TC 65 18.7895 -114.788 4 72 5 270
1974238N12255 1974 91 EP MM MAGGIE 1974-08-30 12:00:00 TS 18.8000 -115.000 65 hurdat_epa main 692 692 O________OO___ hurdat_epa EP131974 18.8000 -115.000 HU 65 1 18.8000 -115.000 TC 65 18.8000 -115.000 4 70 4 277
1974238N12255 1974 91 EP MM MAGGIE 1974-08-30 15:00:00 TS 18.8394 -115.202 main 708 701 P________PP___ EP131974 18.8425 -115.215 HU 65 1 18.8425 -115.215 TC 65 18.8269 -115.152 4 68 4 285
1974238N12255 1974 91 EP MM MAGGIE 1974-08-30 18:00:00 TS 18.8938 -115.378 65 hurdat_epa main 717 717 O________OP___ hurdat_epa EP131974 18.9000 -115.400 HU 65 1 18.9000 -115.400 TC 65 18.8691 -115.290 4 67 3 290
1974238N12255 1974 91 EP MM MAGGIE 1974-08-30 21:00:00 TS 18.9392 -115.502 main 725 718 P________PP___ EP131974 18.9423 -115.513 HU 65 1 18.9423 -115.513 TC 65 18.9267 -115.458 4 66 3 289
1974238N12255 1974 91 EP MM MAGGIE 1974-08-31 00:00:00 TS 19.0000 -115.700 65 hurdat_epa main 734 734 O________OO___ hurdat_epa EP131974 19.0000 -115.700 HU 65 1 19.0000 -115.700 TC 65 19.0000 -115.700 4 65 6 285
1974238N12255 1974 91 EP MM MAGGIE 1974-08-31 03:00:00 TS 19.0913 -116.099 main 749 749 P________PP___ EP131974 19.0926 -116.105 HU 62 0 19.0926 -116.105 TC 62 19.0861 -116.075 4 63 9 283
1974238N12255 1974 91 EP MM MAGGIE 1974-08-31 06:00:00 TS 19.1971 -116.585 60 hurdat_epa main 770 770 O________OP___ hurdat_epa EP131974 19.2000 -116.600 TS 60 0 19.2000 -116.600 TC 60 19.1856 -116.525 4 62 9 283
1974238N12255 1974 91 EP MM MAGGIE 1974-08-31 09:00:00 TS 19.2984 -117.043 main 786 786 P________PP___ EP131974 19.2999 -117.050 TS 57 0 19.2999 -117.050 TC 57 19.2923 -117.012 4 61 9 283
1974238N12255 1974 91 EP MM MAGGIE 1974-08-31 12:00:00 TS 19.4000 -117.500 55 hurdat_epa main 812 812 O________OO___ hurdat_epa EP131974 19.4000 -117.500 TS 55 0 19.4000 -117.500 TC 55 19.4000 -117.500 2 60 9 283
1974238N12255 1974 91 EP MM MAGGIE 1974-08-31 15:00:00 TS 19.5000 -117.962 main 840 840 P________PP___ EP131974 19.4999 -117.958 TS 52 0 19.4999 -117.958 TC 52 19.5002 -117.981 2 57 9 283
1974238N12255 1974 91 EP MM MAGGIE 1974-08-31 18:00:00 TS 19.6001 -118.409 50 hurdat_epa main 862 862 O________OP___ hurdat_epa EP131974 19.6000 -118.400 TS 50 0 19.6000 -118.400 TC 50 19.6004 -118.447 2 55 9 284
1974238N12255 1974 91 EP MM MAGGIE 1974-08-31 21:00:00 TS 19.7061 -118.849 main 886 886 P________PP___ EP131974 19.7076 -118.845 TS 47 0 19.7076 -118.845 TC 47 19.7003 -118.865 2 52 8 285
1974238N12255 1974 91 EP MM MAGGIE 1974-09-01 00:00:00 TS 19.8000 -119.200 45 hurdat_epa main 911 911 O________OO___ hurdat_epa EP131974 19.8000 -119.200 TS 45 0 19.8000 -119.200 TC 45 19.8000 -119.200 2 50 5 286
1974238N12255 1974 91 EP MM MAGGIE 1974-09-01 03:00:00 TS 19.8538 -119.402 main 920 920 P________PP___ EP131974 19.8424 -119.395 TS 42 0 19.8424 -119.395 TC 42 19.8997 -119.428 2 46 3 292
1974238N12255 1974 91 EP MM MAGGIE 1974-09-01 06:00:00 TS 19.9199 -119.514 40 hurdat_epa main 928 922 O________OP___ hurdat_epa EP131974 19.9000 -119.500 TS 40 0 19.9000 -119.500 TC 40 19.9995 -119.568 2 42 3 314
1974238N12255 1974 91 EP MM MAGGIE 1974-09-01 09:00:00 TS 20.0420 -119.608 main 930 923 P________PP___ EP131974 20.0276 -119.597 TS 37 0 20.0276 -119.597 TC 37 20.0997 -119.649 2 38 3 328
1974238N12255 1974 91 EP MM MAGGIE 1974-09-01 12:00:00 TS 20.2000 -119.700 35 hurdat_epa main 925 O________OO___ hurdat_epa EP131974 20.2000 -119.700 TS 35 0 20.2000 -119.700 TC 35 20.2000 -119.700 2 35 4 331

IBTrACS Databaseについて

本データベースは、米国NOAAが公開する1842年以降の世界の熱帯低気圧のベストトラックデータアーカイブInternational Best Track Archive for Climate Stewardship (IBTrACS)を、ウェブで閲覧しやすい形式に変換したものです。

最終更新日:2021-12-03